Time;durP1;ratioP1;P1;durP2;ratioP2;P2;SDS_P1;SDS_P2;PMS_P1;PMS_P2;Temp;Humidity;BMP_temperature;BMP_pressure;BME280_temperature;BME280_humidity;BME280_pressure;Samples;Min_cycle;Max_cycle;Signal;HPM_P1;HPM_P2
2022/01/22 00:01:05;;;;;;;2.00;1.90;;;14.30;57.00;15.60;102411.00;;;;5029813;28;20167;-48
2022/01/22 00:03:32;;;;;;;2.00;1.90;;;14.30;57.00;15.50;102410.00;;;;5029805;28;20164;-47
2022/01/22 00:05:57;;;;;;;2.50;2.27;;;14.30;57.00;15.50;102409.00;;;;5046824;28;20175;-47
2022/01/22 00:08:23;;;;;;;2.60;1.80;;;14.30;57.10;15.50;102397.00;;;;5035073;28;20201;-47
2022/01/22 00:10:51;;;;;;;2.70;2.07;;;14.30;57.00;15.50;102409.00;;;;5037863;28;20602;-48
2022/01/22 00:15:42;;;;;;;1.90;1.70;;;14.30;57.00;15.50;102410.00;;;;5035287;28;20195;-48
2022/01/22 00:18:08;;;;;;;2.07;1.87;;;14.30;57.20;15.50;102419.00;;;;5031713;28;20271;-47
2022/01/22 00:20:36;;;;;;;2.07;1.80;;;14.30;57.10;15.40;102405.00;;;;5033233;28;20178;-47
2022/01/22 00:23:05;;;;;;;1.90;1.80;;;14.20;57.00;15.40;102408.00;;;;5035258;28;20175;-46
2022/01/22 00:25:31;;;;;;;2.27;1.80;;;14.30;57.40;15.40;102406.00;;;;5031471;28;20249;-47
2022/01/22 00:27:57;;;;;;;2.13;1.70;;;14.20;57.10;15.40;102409.00;;;;5029545;28;20661;-46
2022/01/22 00:30:25;;;;;;;2.30;2.10;;;14.20;57.20;15.40;102411.00;;;;5027838;28;20183;-47
2022/01/22 00:32:51;;;;;;;2.03;1.83;;;14.10;57.30;15.40;102398.00;;;;5029013;28;20167;-47
2022/01/22 00:35:17;;;;;;;2.57;1.90;;;14.10;57.50;15.40;102401.00;;;;5029047;28;20203;-47
2022/01/22 00:37:45;;;;;;;2.40;2.00;;;14.10;57.50;15.30;102404.00;;;;5029329;28;20190;-46
2022/01/22 00:40:11;;;;;;;2.43;1.90;;;14.00;57.40;15.30;102400.00;;;;5029256;28;20270;-46
2022/01/22 00:42:41;;;;;;;2.10;1.90;;;14.10;57.60;15.30;102392.00;;;;5029085;28;20427;-46
2022/01/22 00:45:08;;;;;;;3.27;2.23;;;14.00;57.70;15.30;102391.00;;;;5028694;28;20179;-47
2022/01/22 00:47:33;;;;;;;2.33;2.00;;;14.00;57.80;15.30;102398.00;;;;5029409;28;20211;-46
2022/01/22 00:49:59;;;;;;;2.00;1.80;;;14.00;57.60;15.30;102397.00;;;;5029701;28;20179;-47
2022/01/22 00:52:25;;;;;;;2.30;2.10;;;14.00;57.70;15.20;102409.00;;;;5028951;28;20217;-46
2022/01/22 00:54:51;;;;;;;2.33;2.13;;;14.00;57.60;15.20;102405.00;;;;5028611;28;20202;-47
2022/01/22 00:57:16;;;;;;;2.30;2.00;;;14.00;57.80;15.20;102409.00;;;;5028183;28;20199;-47
2022/01/22 00:59:42;;;;;;;2.57;2.10;;;14.00;57.90;15.20;102406.00;;;;5028159;28;20236;-47
2022/01/22 01:02:08;;;;;;;2.20;2.00;;;14.00;57.90;15.20;102412.00;;;;5028835;28;20250;-45
2022/01/22 01:04:35;;;;;;;2.73;2.17;;;13.90;57.80;15.20;102415.00;;;;5028502;28;20178;-47
2022/01/22 01:07:02;;;;;;;2.23;2.03;;;13.90;57.80;15.20;102393.00;;;;5029078;28;20199;-45
2022/01/22 01:09:28;;;;;;;2.00;1.80;;;13.90;58.10;15.20;102392.00;;;;5011642;28;20656;-46
2022/01/22 01:11:58;;;;;;;2.30;1.83;;;13.90;58.00;14.90;102385.00;;;;5028957;28;20178;-47
2022/01/22 01:14:31;;;;;;;2.17;1.97;;;13.90;57.90;15.10;102401.00;;;;5027429;28;20186;-47
2022/01/22 01:33:24;;;;;;;2.27;1.90;;;13.90;58.40;14.80;102397.00;;;;5028174;28;20362;-46
2022/01/22 01:35:50;;;;;;;2.83;1.83;;;13.90;58.40;15.00;102404.00;;;;5028715;28;20199;-54
2022/01/22 01:38:19;;;;;;;2.30;2.10;;;13.90;58.30;15.00;102399.00;;;;5050552;28;20202;-47
2022/01/22 01:40:52;;;;;;;2.73;2.37;;;13.90;58.20;15.00;102396.00;;;;5044278;28;20201;-44
2022/01/22 01:43:24;;;;;;;2.00;1.80;;;13.90;58.00;15.00;102405.00;;;;5028702;28;20151;-46
2022/01/22 01:45:50;;;;;;;3.60;1.97;;;13.90;58.00;15.00;102394.00;;;;5027824;28;20175;-47
2022/01/22 01:48:21;;;;;;;4.27;1.93;;;13.90;58.10;15.00;102395.00;;;;5027621;28;20245;-47
2022/01/22 01:50:46;;;;;;;3.27;2.20;;;13.90;58.10;15.00;102401.00;;;;5039768;28;20166;-46
2022/01/22 01:58:13;;;;;;;2.60;2.40;;;13.80;58.00;15.00;102396.00;;;;5057297;28;20197;-46
2022/01/22 02:00:39;;;;;;;2.87;2.40;;;13.80;58.10;15.00;102390.00;;;;5059693;28;20158;-47
2022/01/22 02:03:05;;;;;;;3.57;2.30;;;13.80;57.90;15.00;102392.00;;;;5051529;28;20599;-46
2022/01/22 02:05:33;;;;;;;6.10;2.63;;;13.80;58.00;14.90;102390.00;;;;5048951;28;20637;-47
2022/01/22 02:07:58;;;;;;;4.23;2.40;;;13.80;57.90;14.90;102398.00;;;;5049407;28;20209;-46
2022/01/22 02:10:28;;;;;;;3.57;2.60;;;13.80;58.00;14.90;102399.00;;;;5047476;28;20182;-45
2022/01/22 02:23:42;;;;;;;2.50;2.30;;;13.70;57.90;14.80;102391.00;;;;5047011;28;20541;-46
2022/01/22 02:26:09;;;;;;;3.40;2.80;;;13.70;57.90;14.80;102396.00;;;;5045930;28;20170;-47
2022/01/22 02:28:35;;;;;;;3.23;2.73;;;13.60;57.80;14.80;102399.00;;;;5047116;28;20194;-48
2022/01/22 02:31:31;;;;;;;3.13;2.53;;;13.60;57.80;14.80;102395.00;;;;5047015;28;20182;-47
2022/01/22 02:36:38;;;;;;;3.57;2.70;;;13.60;57.60;14.80;102393.00;;;;5050179;28;20287;-48
2022/01/22 02:41:30;;;;;;;4.17;2.93;;;13.60;57.60;14.80;102386.00;;;;5046088;28;20220;-47
2022/01/22 02:43:56;;;;;;;3.67;2.90;;;13.60;57.80;14.80;102391.00;;;;5047195;28;20178;-48
2022/01/22 02:46:26;;;;;;;2.97;2.53;;;13.60;57.80;14.80;102386.00;;;;5046873;28;20198;-46
2022/01/22 02:48:54;;;;;;;3.10;2.50;;;13.60;57.60;14.80;102383.00;;;;5046745;28;20182;-46
2022/01/22 02:51:23;;;;;;;2.80;2.47;;;13.60;57.60;14.50;102374.00;;;;5047217;28;20174;-47
2022/01/22 02:53:50;;;;;;;3.10;2.80;;;13.60;57.80;14.70;102373.00;;;;5047154;28;20189;-47
2022/01/22 02:56:16;;;;;;;3.10;2.80;;;13.60;57.80;14.70;102373.00;;;;5046573;28;20206;-46
2022/01/22 02:58:42;;;;;;;3.77;2.80;;;13.60;57.60;14.70;102387.00;;;;5047035;28;20213;-47
2022/01/22 03:01:08;;;;;;;2.90;2.60;;;13.60;57.80;14.70;102373.00;;;;5046870;28;20163;-48
2022/01/22 03:03:36;;;;;;;3.20;2.90;;;13.60;57.60;14.70;102369.00;;;;5045902;28;20674;-47
2022/01/22 03:06:02;;;;;;;3.30;2.80;;;13.60;57.60;14.70;102386.00;;;;5029031;28;20607;-47
2022/01/22 03:08:29;;;;;;;3.47;2.80;;;13.50;57.60;14.70;102373.00;;;;5046677;28;20263;-47
2022/01/22 03:10:55;;;;;;;3.20;2.90;;;13.50;57.50;14.70;102377.00;;;;5046762;28;20182;-46
2022/01/22 03:16:14;;;;;;;3.47;2.83;;;13.50;57.60;14.70;102374.00;;;;5047488;28;20197;-46
2022/01/22 03:21:36;;;;;;;3.20;2.90;;;13.50;57.90;14.60;102377.00;;;;5047865;28;20189;-44
2022/01/22 03:29:37;;;;;;;3.20;2.90;;;13.40;57.90;14.60;102391.00;;;;5050847;28;20228;-46
2022/01/22 03:32:04;;;;;;;3.93;3.30;;;13.40;58.20;14.60;102391.00;;;;5053365;28;20170;-45
2022/01/22 03:34:36;;;;;;;3.37;3.07;;;13.40;58.20;14.60;102382.00;;;;5052689;28;20162;-46
2022/01/22 03:37:02;;;;;;;4.87;3.53;;;13.40;58.10;14.60;102367.00;;;;5050367;28;20197;-46
2022/01/22 03:39:28;;;;;;;3.50;3.20;;;13.30;58.20;14.60;102378.00;;;;5031796;28;20170;-46
2022/01/22 03:41:54;;;;;;;3.40;3.10;;;13.40;58.20;14.60;102377.00;;;;5032385;28;20178;-48
2022/01/22 03:44:20;;;;;;;3.90;3.50;;;13.30;58.10;14.50;102387.00;;;;5050267;28;20625;-47
2022/01/22 03:46:46;;;;;;;4.13;3.30;;;13.40;58.20;14.50;102381.00;;;;5050263;28;20252;-45
2022/01/22 03:49:12;;;;;;;4.23;3.30;;;13.30;58.00;14.50;102387.00;;;;5055899;28;20219;-46
2022/01/22 03:51:38;;;;;;;5.40;3.90;;;13.30;58.00;14.50;102390.00;;;;5066134;28;20171;-46
2022/01/22 03:54:04;;;;;;;4.03;3.63;;;13.30;58.20;14.50;102395.00;;;;5050940;28;20170;-46
2022/01/22 03:56:30;;;;;;;4.33;3.53;;;13.30;58.40;14.50;102385.00;;;;5050381;28;20706;-47
2022/01/22 03:58:55;;;;;;;3.50;3.20;;;13.30;58.50;14.50;102391.00;;;;5050005;28;20201;-47
2022/01/22 04:04:04;;;;;;;3.90;3.40;;;13.30;58.30;14.50;102394.00;;;;5049858;28;20169;-46
2022/01/22 04:09:00;;;;;;;4.67;3.67;;;13.20;58.50;14.50;102398.00;;;;5067278;28;20171;-47
2022/01/22 04:11:26;;;;;;;3.97;3.63;;;13.30;58.50;14.50;102392.00;;;;5063290;28;20923;-46
2022/01/22 04:13:58;;;;;;;4.10;3.70;;;13.30;58.40;14.50;102391.00;;;;5050032;28;20170;-47
2022/01/22 04:16:23;;;;;;;4.17;3.77;;;13.30;58.60;14.40;102396.00;;;;5049131;28;20625;-46
2022/01/22 04:27:11;;;;;;;5.83;4.17;;;13.20;58.70;14.40;102391.00;;;;5049223;28;20197;-46
2022/01/22 04:29:37;;;;;;;4.23;3.83;;;13.20;59.10;14.40;102385.00;;;;5049300;28;20162;-47
2022/01/22 04:32:03;;;;;;;4.90;4.17;;;13.10;58.60;14.40;102390.00;;;;5049322;28;20683;-46
2022/01/22 04:34:29;;;;;;;3.97;3.60;;;13.10;58.60;14.30;102377.00;;;;5050376;28;20270;-47
2022/01/22 04:36:55;;;;;;;4.20;3.80;;;13.10;58.40;14.40;102387.00;;;;5051364;28;20201;-45
2022/01/22 04:39:22;;;;;;;4.90;3.97;;;13.10;58.40;14.30;102383.00;;;;5051265;28;20174;-47
2022/01/22 04:41:49;;;;;;;4.17;3.77;;;13.20;58.40;14.30;102390.00;;;;5052302;28;20656;-47
2022/01/22 04:44:15;;;;;;;4.07;3.63;;;13.10;58.30;14.30;102382.00;;;;5049446;28;20173;-52
2022/01/22 04:55:02;;;;;;;4.50;3.90;;;13.10;58.20;14.20;102391.00;;;;5049419;28;20695;-48
2022/01/22 04:57:29;;;;;;;6.33;4.00;;;13.10;58.20;14.20;102395.00;;;;5047992;28;20288;-47
2022/01/22 04:59:55;;;;;;;6.80;3.80;;;13.10;58.80;14.30;102399.00;;;;5048663;28;20680;-48
2022/01/22 05:02:20;;;;;;;5.50;3.90;;;13.10;58.60;14.20;102393.00;;;;5048638;28;20257;-47
2022/01/22 05:04:46;;;;;;;4.67;3.80;;;13.10;58.50;14.20;102397.00;;;;5048953;28;20197;-47
2022/01/22 05:07:12;;;;;;;6.27;3.47;;;13.10;58.30;14.20;102395.00;;;;5048548;28;20194;-48
2022/01/22 05:09:39;;;;;;;11.27;3.50;;;13.10;58.70;14.20;102393.00;;;;5049148;28;20205;-46
2022/01/22 05:12:06;;;;;;;5.27;3.47;;;13.10;58.40;14.20;102388.00;;;;5049777;28;20637;-45
2022/01/22 05:14:32;;;;;;;5.07;3.47;;;13.10;58.40;14.20;102383.00;;;;5052914;28;20166;-48
2022/01/22 05:17:00;;;;;;;4.60;3.10;;;13.10;58.20;14.20;102381.00;;;;5058292;28;20213;-46
2022/01/22 05:19:34;;;;;;;3.97;3.13;;;13.10;58.20;14.20;102374.00;;;;5048439;28;20179;-48
2022/01/22 05:22:08;;;;;;;3.63;3.00;;;13.10;58.20;14.20;102377.00;;;;5048568;28;20166;-46
2022/01/22 05:24:38;;;;;;;5.00;3.20;;;13.10;58.20;14.20;102386.00;;;;5048674;28;20269;-47
2022/01/22 05:37:25;;;;;;;5.53;3.23;;;13.00;58.30;14.10;102386.00;;;;5047889;28;20814;-46
2022/01/22 05:39:50;;;;;;;3.23;2.90;;;13.00;58.50;14.10;102388.00;;;;5046375;28;20178;-46
2022/01/22 05:42:16;;;;;;;3.83;2.80;;;13.00;58.20;14.10;102388.00;;;;5025746;28;20176;-47
2022/01/22 05:44:42;;;;;;;3.13;2.80;;;13.00;58.30;14.10;102385.00;;;;5015781;28;20171;-48
2022/01/22 05:47:09;;;;;;;4.03;2.87;;;13.00;58.10;14.10;102399.00;;;;5021081;28;20230;-47
2022/01/22 05:49:40;;;;;;;4.23;2.67;;;13.00;58.30;14.10;102387.00;;;;5028950;28;20186;-47
2022/01/22 05:52:08;;;;;;;5.43;3.00;;;13.00;58.30;14.10;102399.00;;;;5029224;28;20166;-47
2022/01/22 06:00:06;;;;;;;3.17;2.80;;;13.00;58.20;14.10;102400.00;;;;5027011;28;20206;-47
2022/01/22 06:02:31;;;;;;;3.20;2.90;;;12.90;58.10;14.00;102400.00;;;;5027274;28;20159;-48
2022/01/22 06:04:57;;;;;;;4.53;2.70;;;13.00;58.30;14.10;102384.00;;;;5025881;28;20229;-47
2022/01/22 06:07:23;;;;;;;5.00;2.67;;;13.00;58.10;14.00;102373.00;;;;5025350;28;20621;-46
2022/01/22 06:10:03;;;;;;;4.80;2.67;;;13.00;58.10;14.00;102404.00;;;;5027500;28;20171;-46
2022/01/22 06:14:56;;;;;;;2.80;2.47;;;13.00;58.10;14.10;102405.00;;;;5056221;28;20186;-46
2022/01/22 06:17:22;;;;;;;5.83;2.90;;;13.20;57.90;14.10;102400.00;;;;5047901;28;20561;-45
2022/01/22 06:19:48;;;;;;;3.93;2.43;;;13.50;57.70;14.30;102409.00;;;;5048050;28;20200;-46
2022/01/22 06:22:13;;;;;;;3.93;2.37;;;13.70;57.20;14.40;102411.00;;;;5046767;28;20174;-47
2022/01/22 06:24:39;;;;;;;4.90;2.60;;;13.90;56.90;14.50;102410.00;;;;5046352;28;20629;-46
2022/01/22 06:27:05;;;;;;;4.50;2.50;;;14.00;56.70;14.60;102412.00;;;;5046827;28;20648;-47
2022/01/22 06:29:31;;;;;;;3.97;2.33;;;14.10;56.80;14.60;102420.00;;;;5046811;28;20189;-46
2022/01/22 06:31:56;;;;;;;5.17;2.50;;;14.10;56.70;14.70;102418.00;;;;5046435;28;20177;-46
2022/01/22 06:34:22;;;;;;;4.03;2.37;;;14.20;56.80;14.70;102423.00;;;;5047233;28;20162;-47
2022/01/22 06:36:48;;;;;;;4.03;2.50;;;14.20;56.70;14.80;102414.00;;;;5046991;28;20214;-48
2022/01/22 06:39:16;;;;;;;3.33;2.40;;;14.20;56.70;14.80;102420.00;;;;5045131;28;20228;-46
2022/01/22 06:41:45;;;;;;;3.37;2.50;;;14.30;56.90;14.80;102424.00;;;;5046500;28;20207;-47
2022/01/22 06:44:21;;;;;;;2.97;2.30;;;14.20;56.80;14.90;102429.00;;;;5046919;28;20258;-46
2022/01/22 06:46:52;;;;;;;3.43;2.30;;;14.20;56.90;14.90;102425.00;;;;5047171;28;20186;-47
2022/01/22 06:49:18;;;;;;;2.83;2.33;;;14.20;56.90;14.90;102429.00;;;;5046568;28;20556;-46
2022/01/22 06:51:44;;;;;;;2.53;2.30;;;14.20;56.90;14.90;102424.00;;;;5047323;28;20193;-47
2022/01/22 06:54:10;;;;;;;3.27;2.10;;;14.20;57.00;14.90;102431.00;;;;5045792;28;20209;-47
2022/01/22 06:56:37;;;;;;;3.03;2.30;;;14.20;57.10;14.90;102437.00;;;;5046768;28;20233;-46
2022/01/22 06:59:05;;;;;;;5.23;2.27;;;14.20;57.10;15.00;102446.00;;;;5049932;28;20641;-48
2022/01/22 07:01:31;;;;;;;3.10;2.20;;;14.10;57.10;15.00;102443.00;;;;5049341;28;20548;-47
2022/01/22 07:03:57;;;;;;;3.20;2.37;;;14.10;57.10;15.00;102457.00;;;;5050338;28;20170;-47
2022/01/22 07:06:23;;;;;;;3.10;2.40;;;14.10;57.20;15.00;102447.00;;;;5050576;28;20261;-47
2022/01/22 07:08:48;;;;;;;3.57;2.20;;;14.10;57.10;15.00;102448.00;;;;5050143;28;20170;-47
2022/01/22 07:11:14;;;;;;;2.50;2.30;;;14.10;57.20;15.00;102447.00;;;;5049965;28;20261;-47
2022/01/22 07:13:40;;;;;;;2.47;2.27;;;14.10;57.30;15.00;102453.00;;;;5050580;28;20201;-47
2022/01/22 07:16:06;;;;;;;3.10;2.20;;;14.10;57.40;14.90;102449.00;;;;5048618;28;20198;-46
2022/01/22 07:18:32;;;;;;;2.30;2.10;;;14.10;57.40;15.00;102454.00;;;;5050064;28;20194;-47
2022/01/22 07:20:58;;;;;;;2.63;2.20;;;14.00;57.30;15.00;102459.00;;;;5049791;28;20174;-48
2022/01/22 07:26:05;;;;;;;2.50;2.30;;;14.00;58.00;14.90;102465.00;;;;5049851;28;20549;-46
2022/01/22 07:28:31;;;;;;;2.70;2.07;;;14.00;57.40;14.90;102473.00;;;;5050403;28;20630;-48
2022/01/22 07:30:59;;;;;;;2.57;2.20;;;14.00;57.40;14.90;102474.00;;;;5049498;28;20192;-48
2022/01/22 07:33:26;;;;;;;3.10;2.30;;;14.00;57.40;14.90;102481.00;;;;5051485;28;20182;-48
2022/01/22 07:35:52;;;;;;;3.07;2.40;;;14.00;57.40;14.90;102473.00;;;;5066816;28;20208;-47
2022/01/22 07:38:18;;;;;;;2.40;2.20;;;13.90;57.40;14.90;102476.00;;;;5055314;28;20178;-47
2022/01/22 07:40:43;;;;;;;3.03;2.40;;;13.90;57.50;14.90;102476.00;;;;5051709;28;20518;-47
2022/01/22 07:43:09;;;;;;;2.40;2.20;;;13.90;57.50;14.90;102500.00;;;;5051909;28;20170;-47
2022/01/22 07:45:35;;;;;;;2.40;2.20;;;13.90;57.40;14.90;102486.00;;;;5051261;28;20198;-47
2022/01/22 07:48:01;;;;;;;2.30;2.10;;;13.90;57.50;14.90;102485.00;;;;5051544;28;20198;-47
2022/01/22 07:50:27;;;;;;;2.40;2.20;;;13.90;57.50;14.90;102471.00;;;;5050433;28;20181;-47
2022/01/22 07:52:53;;;;;;;2.37;2.17;;;13.80;57.50;14.80;102483.00;;;;5050188;28;20236;-47
2022/01/22 07:55:21;;;;;;;2.43;2.23;;;13.90;57.60;14.80;102487.00;;;;5049904;28;20632;-47
2022/01/22 07:57:47;;;;;;;2.73;2.10;;;13.90;57.60;14.80;102479.00;;;;5050030;28;20198;-47
2022/01/22 08:00:16;;;;;;;2.23;2.03;;;13.80;57.50;14.80;102479.00;;;;5049120;28;20216;-47
2022/01/22 08:02:42;;;;;;;2.20;2.10;;;13.80;57.60;14.80;102484.00;;;;5049634;28;20190;-47
2022/01/22 08:05:08;;;;;;;2.30;2.10;;;13.80;57.60;14.80;102484.00;;;;5049552;28;20204;-47
2022/01/22 08:07:34;;;;;;;2.50;2.30;;;13.80;57.80;14.80;102488.00;;;;5049581;28;20276;-47
2022/01/22 08:10:00;;;;;;;2.20;2.00;;;13.70;57.60;14.80;102492.00;;;;5049650;28;20174;-47
2022/01/22 08:12:26;;;;;;;2.20;2.10;;;13.80;57.70;14.80;102496.00;;;;5048936;28;20182;-47
2022/01/22 08:14:51;;;;;;;2.33;2.13;;;13.80;57.80;14.70;102487.00;;;;5049714;28;20170;-47
2022/01/22 08:17:17;;;;;;;2.20;2.00;;;13.70;57.60;14.70;102486.00;;;;5048292;28;20194;-47
2022/01/22 08:19:43;;;;;;;2.37;2.13;;;13.70;57.90;14.70;102489.00;;;;5049123;28;20170;-47
2022/01/22 08:22:08;;;;;;;2.10;1.90;;;13.70;57.90;14.70;102495.00;;;;5049340;28;20224;-48
2022/01/22 08:24:34;;;;;;;2.43;2.17;;;13.70;57.90;14.70;102499.00;;;;5049192;28;20174;-47
2022/01/22 08:27:13;;;;;;;2.37;2.20;;;13.60;57.80;14.70;102473.00;;;;5048702;28;20579;-49
2022/01/22 08:29:38;;;;;;;2.40;2.20;;;13.70;57.90;14.70;102497.00;;;;5047469;28;20632;-47
2022/01/22 08:37:18;;;;;;;2.33;2.13;;;13.60;57.80;14.60;102491.00;;;;5048783;28;20340;-48
2022/01/22 08:39:43;;;;;;;2.83;2.20;;;13.60;57.80;14.60;102486.00;;;;5049020;28;20396;-47
2022/01/22 08:42:09;;;;;;;2.00;1.90;;;13.60;57.80;14.60;102499.00;;;;5048552;28;20182;-47
2022/01/22 08:44:35;;;;;;;2.00;1.90;;;13.60;57.80;14.60;102499.00;;;;5049235;28;20167;-47
2022/01/22 08:47:01;;;;;;;2.20;2.00;;;13.60;57.80;14.60;102494.00;;;;5048086;28;20182;-47
2022/01/22 08:49:26;;;;;;;2.20;2.00;;;13.60;57.80;14.60;102497.00;;;;5048458;28;20174;-47
2022/01/22 08:51:53;;;;;;;1.90;1.80;;;13.50;57.80;14.60;102498.00;;;;5048921;28;20294;-47
2022/01/22 08:54:18;;;;;;;2.30;2.10;;;13.50;57.80;14.60;102500.00;;;;5048973;28;20544;-48
2022/01/22 08:56:44;;;;;;;2.30;2.10;;;13.50;57.80;14.60;102497.00;;;;5054060;28;20236;-47
2022/01/22 08:59:11;;;;;;;2.10;2.00;;;13.50;57.90;14.50;102508.00;;;;5048729;28;20616;-47
2022/01/22 09:01:41;;;;;;;2.00;1.90;;;13.50;57.80;14.60;102513.00;;;;5051532;28;20332;-47
2022/01/22 09:04:07;;;;;;;2.13;1.93;;;13.50;57.80;14.50;102503.00;;;;5054446;28;20227;-48
2022/01/22 09:06:33;;;;;;;2.30;2.10;;;13.50;58.00;14.50;102495.00;;;;5052109;28;20174;-46
2022/01/22 09:09:08;;;;;;;2.20;2.00;;;13.50;57.80;14.50;102501.00;;;;5050028;28;20174;-47
2022/01/22 09:11:34;;;;;;;2.20;2.00;;;13.50;57.80;14.50;102508.00;;;;5035255;28;20832;-47
2022/01/22 09:14:00;;;;;;;2.10;2.00;;;13.40;57.80;14.50;102511.00;;;;5031632;28;20171;-48
2022/01/22 09:16:26;;;;;;;2.20;2.03;;;13.40;57.80;14.50;102505.00;;;;5031312;28;20226;-47
2022/01/22 09:18:53;;;;;;;4.13;2.20;;;13.50;57.80;14.50;102506.00;;;;5028181;28;20178;-47
2022/01/22 09:21:19;;;;;;;6.20;2.30;;;13.70;57.90;14.60;102519.00;;;;5028537;28;20194;-48
2022/01/22 09:23:45;;;;;;;6.50;2.60;;;13.90;58.10;14.60;102519.00;;;;5028051;28;20190;-47
2022/01/22 09:26:11;;;;;;;3.33;2.20;;;13.90;57.60;14.70;102514.00;;;;5031452;28;20210;-50
2022/01/22 09:28:37;;;;;;;4.27;2.20;;;14.00;57.60;14.80;102523.00;;;;5050673;28;20191;-49
2022/01/22 09:31:03;;;;;;;5.73;2.70;;;14.20;57.50;14.80;102512.00;;;;5031943;28;20258;-47
2022/01/22 09:33:29;;;;;;;2.47;2.17;;;14.20;57.20;14.90;102513.00;;;;5029159;28;20267;-47
2022/01/22 09:35:54;;;;;;;4.13;2.00;;;14.30;57.10;14.90;102514.00;;;;5033017;28;20194;-47
2022/01/22 09:38:21;;;;;;;4.33;2.20;;;14.30;57.00;15.00;102512.00;;;;5038604;28;20171;-48
2022/01/22 09:40:47;;;;;;;2.50;2.30;;;14.40;57.10;15.00;102520.00;;;;5027632;28;20244;-46
2022/01/22 09:43:12;;;;;;;3.63;2.10;;;14.40;56.90;15.10;102528.00;;;;5010645;28;20172;-47
2022/01/22 09:45:38;;;;;;;7.03;2.60;;;14.50;57.10;15.10;102526.00;;;;5007765;28;20560;-48
2022/01/22 09:48:04;;;;;;;9.97;2.40;;;14.50;57.20;15.20;102529.00;;;;5009961;28;20195;-46
2022/01/22 09:50:31;;;;;;;4.37;2.33;;;14.50;57.10;15.20;102526.00;;;;5008569;28;20195;-46
2022/01/22 09:52:57;;;;;;;7.63;2.37;;;14.60;57.30;15.20;102535.00;;;;5009026;28;20291;-47
2022/01/22 09:55:22;;;;;;;5.23;2.27;;;14.60;57.30;15.30;102526.00;;;;5009511;28;20196;-47
2022/01/22 09:57:49;;;;;;;4.20;2.13;;;14.70;57.40;15.30;102539.00;;;;5009154;28;20357;-46
2022/01/22 10:00:15;;;;;;;3.00;2.37;;;14.80;57.70;15.40;102532.00;;;;5008954;28;20182;-49
2022/01/22 10:02:50;;;;;;;4.97;2.40;;;14.80;57.90;15.40;102541.00;;;;5009159;28;20223;-49
2022/01/22 10:05:37;;;;;;;4.13;2.50;;;14.80;58.40;15.50;102546.00;;;;5008284;28;20182;-47
2022/01/22 10:08:30;;;;;;;8.50;2.60;;;14.90;58.40;15.50;102532.00;;;;5008241;28;20686;-46
2022/01/22 10:10:58;;;;;;;4.60;2.40;;;14.90;58.60;15.50;102532.00;;;;5009271;28;20156;-47
2022/01/22 10:13:48;;;;;;;4.07;2.40;;;14.90;58.60;15.60;102541.00;;;;5010079;28;20761;-47
2022/01/22 10:16:16;;;;;;;4.07;2.20;;;14.90;58.70;15.60;102538.00;;;;5009070;28;20732;-46
2022/01/22 10:18:42;;;;;;;4.00;2.50;;;15.00;59.00;15.60;102542.00;;;;5008261;28;20190;-46
2022/01/22 10:21:10;;;;;;;5.17;2.60;;;15.00;58.70;15.60;102548.00;;;;5008378;28;20617;-47
2022/01/22 10:23:39;;;;;;;4.40;2.53;;;15.00;58.50;15.70;102537.00;;;;5007234;28;20195;-46
2022/01/22 10:26:07;;;;;;;4.87;2.40;;;15.10;58.50;15.70;102534.00;;;;5008340;28;20164;-47
2022/01/22 10:28:47;;;;;;;3.20;2.57;;;15.10;58.40;15.70;102533.00;;;;5008461;28;20203;-47
2022/01/22 10:31:20;;;;;;;4.83;2.83;;;15.10;58.30;15.70;102530.00;;;;5007523;28;20151;-44
2022/01/22 10:34:07;;;;;;;3.80;2.67;;;15.00;58.10;15.80;102532.00;;;;5009217;28;20160;-47
2022/01/22 10:36:32;;;;;;;5.87;2.50;;;15.10;58.10;15.80;102529.00;;;;5006923;28;20187;-48
2022/01/22 10:38:59;;;;;;;3.90;2.60;;;15.10;58.00;15.80;102522.00;;;;5007474;28;20160;-46
2022/01/22 10:41:40;;;;;;;3.17;2.50;;;15.10;58.00;15.80;102526.00;;;;5007880;28;20187;-45
2022/01/22 10:44:08;;;;;;;3.83;2.70;;;15.20;58.00;15.90;102529.00;;;;5010727;28;20159;-48
2022/01/22 10:47:03;;;;;;;6.27;2.63;;;15.20;58.00;15.90;102529.00;;;;5008550;28;20170;-48
2022/01/22 10:49:29;;;;;;;12.30;3.20;;;15.20;58.10;15.90;102529.00;;;;5009228;28;20179;-46
2022/01/22 10:52:00;;;;;;;10.77;3.00;;;15.20;58.30;15.90;102540.00;;;;5008713;28;20175;-46
2022/01/22 10:54:32;;;;;;;9.60;2.67;;;15.30;58.60;16.00;102537.00;;;;5007482;28;20176;-47
2022/01/22 10:57:16;;;;;;;8.40;3.17;;;15.40;58.60;16.00;102534.00;;;;5006397;28;20215;-47
2022/01/22 10:59:47;;;;;;;12.53;3.10;;;15.40;59.30;16.00;102531.00;;;;5007650;28;20168;-47
2022/01/22 11:02:14;;;;;;;10.93;3.10;;;15.50;59.80;16.10;102528.00;;;;5008176;28;20170;-47
2022/01/22 11:04:41;;;;;;;10.73;2.83;;;15.80;59.60;16.30;102523.00;;;;4991199;28;20160;-45
2022/01/22 11:07:18;;;;;;;7.80;2.43;;;16.10;59.50;16.40;102522.00;;;;5007548;28;20614;-45
2022/01/22 11:09:44;;;;;;;9.60;2.37;;;16.30;60.30;16.60;102528.00;;;;5006802;28;20610;-47
2022/01/22 11:12:10;;;;;;;7.13;2.50;;;16.60;59.40;16.80;102530.00;;;;5007834;28;20187;-46
2022/01/22 11:14:37;;;;;;;9.03;2.50;;;16.80;59.30;16.80;102520.00;;;;5007931;28;20206;-45
2022/01/22 11:17:04;;;;;;;11.03;3.00;;;16.50;59.70;16.80;102515.00;;;;5007739;28;20263;-45
2022/01/22 11:19:33;;;;;;;10.10;2.60;;;16.30;61.00;16.80;102514.00;;;;5011007;28;20172;-46
2022/01/22 11:22:07;;;;;;;5.80;2.57;;;16.20;62.40;16.80;102521.00;;;;5015347;28;20160;-46
2022/01/22 11:24:35;;;;;;;5.00;2.43;;;16.10;62.80;16.80;102521.00;;;;5011622;28;20700;-46
2022/01/22 11:27:03;;;;;;;7.43;2.57;;;16.00;62.40;16.80;102521.00;;;;5007929;28;20199;-46
2022/01/22 11:29:35;;;;;;;5.03;2.43;;;16.10;62.50;16.80;102532.00;;;;5009808;28;20525;-46
2022/01/22 11:32:03;;;;;;;7.17;2.40;;;16.00;62.00;16.70;102524.00;;;;5007755;28;20160;-46
2022/01/22 11:34:31;;;;;;;4.43;2.57;;;16.00;61.50;16.70;102529.00;;;;4991698;28;20222;-46
2022/01/22 11:37:23;;;;;;;6.73;2.77;;;16.00;61.30;16.80;102531.00;;;;5006097;28;20292;-46
2022/01/22 11:40:19;;;;;;;5.27;2.63;;;16.00;61.00;16.80;102520.00;;;;5005969;28;20152;-47
2022/01/22 11:43:20;;;;;;;4.97;2.60;;;16.00;60.80;16.70;102523.00;;;;5008687;28;20335;-47
2022/01/22 11:45:50;;;;;;;8.23;3.13;;;16.00;60.70;16.70;102521.00;;;;5010625;28;20222;-46
2022/01/22 11:48:21;;;;;;;10.70;3.10;;;16.10;62.60;16.80;102520.00;;;;5011316;28;20223;-47
2022/01/22 11:50:49;;;;;;;5.80;2.80;;;16.00;62.40;16.80;102509.00;;;;5010483;28;20214;-47
2022/01/22 11:53:32;;;;;;;5.80;2.53;;;16.00;62.70;16.80;102518.00;;;;5015294;28;20203;-46
2022/01/22 11:56:10;;;;;;;4.57;2.50;;;16.10;62.60;16.80;102513.00;;;;5014089;28;20192;-46
2022/01/22 11:58:58;;;;;;;6.90;2.77;;;16.10;62.50;16.80;102507.00;;;;5011131;28;20203;-46
2022/01/22 12:01:52;;;;;;;9.00;3.00;;;16.10;62.60;16.80;102521.00;;;;5011037;28;20190;-47
2022/01/22 12:04:20;;;;;;;4.10;2.50;;;16.10;62.50;16.80;102525.00;;;;5012719;28;20247;-46
2022/01/22 12:07:01;;;;;;;5.80;2.60;;;16.10;62.30;16.80;102515.00;;;;5024800;28;20672;-46
2022/01/22 12:09:30;;;;;;;10.17;3.10;;;16.10;62.30;16.80;102516.00;;;;5032036;28;20681;-47
2022/01/22 12:14:47;;;;;;;6.10;2.57;;;16.10;62.20;16.80;102515.00;;;;5039600;28;20166;-46
2022/01/22 12:17:19;;;;;;;2.67;2.47;;;16.10;61.80;16.80;102521.00;;;;5030914;28;20215;-45
2022/01/22 12:22:33;;;;;;;6.87;2.80;;;16.10;61.20;16.80;102513.00;;;;5031034;28;20546;-46
2022/01/22 12:25:02;;;;;;;4.20;2.37;;;16.10;61.00;16.90;102516.00;;;;5022981;28;20193;-46
2022/01/22 12:27:50;;;;;;;10.00;2.60;;;16.10;60.80;16.90;102528.00;;;;5029966;28;20204;-46
2022/01/22 12:30:31;;;;;;;6.97;2.40;;;16.10;60.90;16.90;102519.00;;;;5029367;28;20549;-46
2022/01/22 12:32:58;;;;;;;5.87;2.70;;;16.10;61.10;16.90;102517.00;;;;5030603;28;20178;-46
2022/01/22 12:35:44;;;;;;;4.13;2.47;;;16.20;61.60;16.90;102519.00;;;;5030943;28;20282;-46
2022/01/22 12:38:27;;;;;;;4.47;2.63;;;16.10;61.20;16.90;102515.00;;;;5031084;28;20237;-45